sensor_id;sensor_type;location;lat;lon;timestamp;P1;durP1;ratioP1;P2;durP2;ratioP2
21886;SDS011;11108;49.988;8.182;2024-01-25T00:00:39;2.87;;;1.67;;
21886;SDS011;11108;49.988;8.182;2024-01-25T00:03:04;4.70;;;1.80;;
21886;SDS011;11108;49.988;8.182;2024-01-25T00:05:30;2.50;;;1.60;;
21886;SDS011;11108;49.988;8.182;2024-01-25T00:07:55;4.40;;;1.93;;
21886;SDS011;11108;49.988;8.182;2024-01-25T00:10:21;4.13;;;1.83;;
21886;SDS011;11108;49.988;8.182;2024-01-25T00:12:46;2.27;;;1.93;;
21886;SDS011;11108;49.988;8.182;2024-01-25T00:15:12;3.80;;;1.90;;
21886;SDS011;11108;49.988;8.182;2024-01-25T00:17:37;2.40;;;2.03;;
21886;SDS011;11108;49.988;8.182;2024-01-25T00:20:03;1.87;;;1.63;;
21886;SDS011;11108;49.988;8.182;2024-01-25T00:22:28;3.07;;;1.50;;
21886;SDS011;11108;49.988;8.182;2024-01-25T00:24:53;3.13;;;2.10;;
21886;SDS011;11108;49.988;8.182;2024-01-25T00:27:18;2.73;;;1.73;;
21886;SDS011;11108;49.988;8.182;2024-01-25T00:29:44;2.67;;;1.60;;
21886;SDS011;11108;49.988;8.182;2024-01-25T00:32:09;1.93;;;1.60;;
21886;SDS011;11108;49.988;8.182;2024-01-25T00:34:34;2.40;;;1.70;;
21886;SDS011;11108;49.988;8.182;2024-01-25T00:36:59;3.23;;;2.13;;
21886;SDS011;11108;49.988;8.182;2024-01-25T00:39:25;3.90;;;1.80;;
21886;SDS011;11108;49.988;8.182;2024-01-25T00:41:51;3.83;;;1.70;;
21886;SDS011;11108;49.988;8.182;2024-01-25T00:44:16;4.73;;;2.13;;
21886;SDS011;11108;49.988;8.182;2024-01-25T00:46:41;2.87;;;1.70;;
21886;SDS011;11108;49.988;8.182;2024-01-25T00:49:07;2.17;;;1.83;;
21886;SDS011;11108;49.988;8.182;2024-01-25T00:51:33;2.77;;;1.90;;
21886;SDS011;11108;49.988;8.182;2024-01-25T00:53:58;3.13;;;2.17;;
21886;SDS011;11108;49.988;8.182;2024-01-25T00:56:24;2.67;;;1.80;;
21886;SDS011;11108;49.988;8.182;2024-01-25T00:58:49;2.23;;;1.43;;
21886;SDS011;11108;49.988;8.182;2024-01-25T01:01:14;1.80;;;1.43;;
21886;SDS011;11108;49.988;8.182;2024-01-25T01:03:40;3.00;;;1.80;;
21886;SDS011;11108;49.988;8.182;2024-01-25T01:06:05;3.33;;;1.60;;
21886;SDS011;11108;49.988;8.182;2024-01-25T01:08:31;3.37;;;2.03;;
21886;SDS011;11108;49.988;8.182;2024-01-25T01:10:56;1.60;;;1.30;;
21886;SDS011;11108;49.988;8.182;2024-01-25T01:13:21;3.00;;;1.50;;
21886;SDS011;11108;49.988;8.182;2024-01-25T01:15:46;3.00;;;1.70;;
21886;SDS011;11108;49.988;8.182;2024-01-25T01:18:11;2.00;;;1.27;;
21886;SDS011;11108;49.988;8.182;2024-01-25T01:20:37;3.13;;;1.90;;
21886;SDS011;11108;49.988;8.182;2024-01-25T01:23:02;3.83;;;1.80;;
21886;SDS011;11108;49.988;8.182;2024-01-25T01:25:27;2.87;;;1.57;;
21886;SDS011;11108;49.988;8.182;2024-01-25T01:27:52;3.80;;;1.70;;
21886;SDS011;11108;49.988;8.182;2024-01-25T01:30:17;3.17;;;1.70;;
21886;SDS011;11108;49.988;8.182;2024-01-25T01:32:43;3.43;;;1.77;;
21886;SDS011;11108;49.988;8.182;2024-01-25T01:35:08;2.27;;;1.70;;
21886;SDS011;11108;49.988;8.182;2024-01-25T01:37:33;2.50;;;1.60;;
21886;SDS011;11108;49.988;8.182;2024-01-25T01:39:58;1.60;;;1.50;;
21886;SDS011;11108;49.988;8.182;2024-01-25T01:42:24;2.97;;;2.00;;
21886;SDS011;11108;49.988;8.182;2024-01-25T01:44:50;1.80;;;1.47;;
21886;SDS011;11108;49.988;8.182;2024-01-25T01:47:17;2.17;;;1.40;;
21886;SDS011;11108;49.988;8.182;2024-01-25T01:49:42;1.43;;;1.33;;
21886;SDS011;11108;49.988;8.182;2024-01-25T01:52:07;2.50;;;1.60;;
21886;SDS011;11108;49.988;8.182;2024-01-25T01:54:33;3.03;;;1.80;;
21886;SDS011;11108;49.988;8.182;2024-01-25T01:56:58;3.93;;;1.70;;
21886;SDS011;11108;49.988;8.182;2024-01-25T01:59:23;2.27;;;1.77;;
21886;SDS011;11108;49.988;8.182;2024-01-25T02:01:50;2.73;;;1.77;;
21886;SDS011;11108;49.988;8.182;2024-01-25T02:04:15;4.30;;;2.20;;
21886;SDS011;11108;49.988;8.182;2024-01-25T02:06:41;2.50;;;1.93;;
21886;SDS011;11108;49.988;8.182;2024-01-25T02:09:07;2.10;;;1.50;;
21886;SDS011;11108;49.988;8.182;2024-01-25T02:11:32;3.37;;;1.83;;
21886;SDS011;11108;49.988;8.182;2024-01-25T02:13:57;2.47;;;1.70;;
21886;SDS011;11108;49.988;8.182;2024-01-25T02:16:22;3.63;;;1.80;;
21886;SDS011;11108;49.988;8.182;2024-01-25T02:18:48;1.97;;;1.57;;
21886;SDS011;11108;49.988;8.182;2024-01-25T02:21:13;2.93;;;1.53;;
21886;SDS011;11108;49.988;8.182;2024-01-25T02:23:38;1.67;;;1.40;;
21886;SDS011;11108;49.988;8.182;2024-01-25T02:26:04;1.93;;;1.70;;
21886;SDS011;11108;49.988;8.182;2024-01-25T02:28:29;1.67;;;1.13;;
21886;SDS011;11108;49.988;8.182;2024-01-25T02:30:54;3.03;;;1.60;;
21886;SDS011;11108;49.988;8.182;2024-01-25T02:33:19;2.40;;;1.13;;
21886;SDS011;11108;49.988;8.182;2024-01-25T02:35:44;5.53;;;2.23;;
21886;SDS011;11108;49.988;8.182;2024-01-25T02:38:10;3.80;;;1.70;;
21886;SDS011;11108;49.988;8.182;2024-01-25T02:40:35;2.90;;;1.67;;
21886;SDS011;11108;49.988;8.182;2024-01-25T02:43:00;3.20;;;2.00;;
21886;SDS011;11108;49.988;8.182;2024-01-25T02:45:25;3.00;;;2.00;;
21886;SDS011;11108;49.988;8.182;2024-01-25T02:47:50;2.87;;;1.93;;
21886;SDS011;11108;49.988;8.182;2024-01-25T02:50:16;3.00;;;1.60;;
21886;SDS011;11108;49.988;8.182;2024-01-25T02:52:41;2.97;;;1.80;;
21886;SDS011;11108;49.988;8.182;2024-01-25T02:55:06;2.67;;;1.50;;
21886;SDS011;11108;49.988;8.182;2024-01-25T02:57:32;2.43;;;1.67;;
21886;SDS011;11108;49.988;8.182;2024-01-25T02:59:57;3.13;;;1.57;;
21886;SDS011;11108;49.988;8.182;2024-01-25T03:02:22;2.87;;;1.57;;
21886;SDS011;11108;49.988;8.182;2024-01-25T03:04:48;3.03;;;1.70;;
21886;SDS011;11108;49.988;8.182;2024-01-25T03:07:13;2.30;;;1.83;;
21886;SDS011;11108;49.988;8.182;2024-01-25T03:09:38;3.03;;;1.80;;
21886;SDS011;11108;49.988;8.182;2024-01-25T03:12:04;3.53;;;1.80;;
21886;SDS011;11108;49.988;8.182;2024-01-25T03:14:29;3.23;;;1.73;;
21886;SDS011;11108;49.988;8.182;2024-01-25T03:16:54;2.83;;;2.17;;
21886;SDS011;11108;49.988;8.182;2024-01-25T03:19:19;3.33;;;1.70;;
21886;SDS011;11108;49.988;8.182;2024-01-25T03:21:45;2.23;;;1.43;;
21886;SDS011;11108;49.988;8.182;2024-01-25T03:24:10;2.67;;;1.67;;
21886;SDS011;11108;49.988;8.182;2024-01-25T03:26:35;2.93;;;1.77;;
21886;SDS011;11108;49.988;8.182;2024-01-25T03:29:00;3.43;;;1.80;;
21886;SDS011;11108;49.988;8.182;2024-01-25T03:31:25;2.30;;;1.80;;
21886;SDS011;11108;49.988;8.182;2024-01-25T03:33:50;2.80;;;1.53;;
21886;SDS011;11108;49.988;8.182;2024-01-25T03:36:16;2.90;;;1.47;;
21886;SDS011;11108;49.988;8.182;2024-01-25T03:38:41;3.43;;;2.23;;
21886;SDS011;11108;49.988;8.182;2024-01-25T03:41:06;2.30;;;1.70;;
21886;SDS011;11108;49.988;8.182;2024-01-25T03:43:31;3.23;;;1.63;;
21886;SDS011;11108;49.988;8.182;2024-01-25T03:45:57;2.97;;;1.73;;
21886;SDS011;11108;49.988;8.182;2024-01-25T03:48:22;3.43;;;2.07;;
21886;SDS011;11108;49.988;8.182;2024-01-25T03:50:47;3.67;;;1.80;;
21886;SDS011;11108;49.988;8.182;2024-01-25T03:53:12;2.17;;;1.17;;
21886;SDS011;11108;49.988;8.182;2024-01-25T03:55:38;2.77;;;1.50;;
21886;SDS011;11108;49.988;8.182;2024-01-25T03:58:03;2.17;;;1.80;;
21886;SDS011;11108;49.988;8.182;2024-01-25T04:00:28;1.87;;;1.73;;
21886;SDS011;11108;49.988;8.182;2024-01-25T04:02:53;3.63;;;1.93;;
21886;SDS011;11108;49.988;8.182;2024-01-25T04:05:18;4.40;;;1.80;;
21886;SDS011;11108;49.988;8.182;2024-01-25T04:07:44;4.67;;;1.73;;
21886;SDS011;11108;49.988;8.182;2024-01-25T04:10:09;2.57;;;1.77;;
21886;SDS011;11108;49.988;8.182;2024-01-25T04:12:34;2.43;;;1.80;;
21886;SDS011;11108;49.988;8.182;2024-01-25T04:14:59;3.70;;;2.00;;
21886;SDS011;11108;49.988;8.182;2024-01-25T04:17:24;4.57;;;2.10;;
21886;SDS011;11108;49.988;8.182;2024-01-25T04:19:50;2.63;;;1.73;;
21886;SDS011;11108;49.988;8.182;2024-01-25T04:22:15;2.37;;;2.00;;
21886;SDS011;11108;49.988;8.182;2024-01-25T04:24:40;3.70;;;1.80;;
21886;SDS011;11108;49.988;8.182;2024-01-25T04:27:06;4.10;;;2.00;;
21886;SDS011;11108;49.988;8.182;2024-01-25T04:29:31;1.67;;;1.50;;
21886;SDS011;11108;49.988;8.182;2024-01-25T04:31:56;2.87;;;1.80;;
21886;SDS011;11108;49.988;8.182;2024-01-25T04:34:22;3.07;;;1.60;;
21886;SDS011;11108;49.988;8.182;2024-01-25T04:36:47;2.70;;;1.53;;
21886;SDS011;11108;49.988;8.182;2024-01-25T04:39:12;3.37;;;1.90;;
21886;SDS011;11108;49.988;8.182;2024-01-25T04:41:37;2.40;;;1.40;;
21886;SDS011;11108;49.988;8.182;2024-01-25T04:44:03;2.67;;;1.80;;
21886;SDS011;11108;49.988;8.182;2024-01-25T04:46:28;2.70;;;1.90;;
21886;SDS011;11108;49.988;8.182;2024-01-25T04:48:54;2.07;;;1.70;;
21886;SDS011;11108;49.988;8.182;2024-01-25T04:51:19;3.00;;;1.97;;
21886;SDS011;11108;49.988;8.182;2024-01-25T04:53:48;2.47;;;1.87;;
21886;SDS011;11108;49.988;8.182;2024-01-25T04:56:13;2.90;;;1.80;;
21886;SDS011;11108;49.988;8.182;2024-01-25T04:58:38;5.13;;;1.77;;
21886;SDS011;11108;49.988;8.182;2024-01-25T05:01:03;2.07;;;1.30;;
21886;SDS011;11108;49.988;8.182;2024-01-25T05:03:29;2.77;;;1.57;;
21886;SDS011;11108;49.988;8.182;2024-01-25T05:05:54;2.47;;;1.63;;
21886;SDS011;11108;49.988;8.182;2024-01-25T05:08:19;3.00;;;1.63;;
21886;SDS011;11108;49.988;8.182;2024-01-25T05:10:44;2.67;;;1.97;;
21886;SDS011;11108;49.988;8.182;2024-01-25T05:13:10;2.10;;;1.30;;
21886;SDS011;11108;49.988;8.182;2024-01-25T05:15:35;3.87;;;1.67;;
21886;SDS011;11108;49.988;8.182;2024-01-25T05:18:01;2.80;;;1.57;;
21886;SDS011;11108;49.988;8.182;2024-01-25T05:20:26;3.77;;;1.60;;
21886;SDS011;11108;49.988;8.182;2024-01-25T05:22:58;3.33;;;1.67;;
21886;SDS011;11108;49.988;8.182;2024-01-25T05:25:23;3.00;;;1.97;;
21886;SDS011;11108;49.988;8.182;2024-01-25T05:27:48;2.13;;;1.60;;
21886;SDS011;11108;49.988;8.182;2024-01-25T05:30:13;2.83;;;1.63;;
21886;SDS011;11108;49.988;8.182;2024-01-25T05:32:39;2.10;;;1.53;;
21886;SDS011;11108;49.988;8.182;2024-01-25T05:35:04;2.70;;;1.40;;
21886;SDS011;11108;49.988;8.182;2024-01-25T05:37:29;2.30;;;1.40;;
21886;SDS011;11108;49.988;8.182;2024-01-25T05:39:55;3.33;;;1.60;;
21886;SDS011;11108;49.988;8.182;2024-01-25T05:42:20;2.37;;;1.83;;
21886;SDS011;11108;49.988;8.182;2024-01-25T05:44:45;3.13;;;1.60;;
21886;SDS011;11108;49.988;8.182;2024-01-25T05:47:11;2.30;;;1.73;;
21886;SDS011;11108;49.988;8.182;2024-01-25T05:49:36;2.77;;;1.70;;
21886;SDS011;11108;49.988;8.182;2024-01-25T05:52:01;5.23;;;2.00;;
21886;SDS011;11108;49.988;8.182;2024-01-25T05:54:26;2.50;;;1.60;;
21886;SDS011;11108;49.988;8.182;2024-01-25T05:56:51;2.57;;;1.60;;
21886;SDS011;11108;49.988;8.182;2024-01-25T05:59:17;2.03;;;1.47;;
21886;SDS011;11108;49.988;8.182;2024-01-25T06:01:42;3.07;;;1.83;;
21886;SDS011;11108;49.988;8.182;2024-01-25T06:04:08;2.77;;;1.83;;
21886;SDS011;11108;49.988;8.182;2024-01-25T06:06:33;2.30;;;1.70;;
21886;SDS011;11108;49.988;8.182;2024-01-25T06:08:58;3.43;;;1.80;;
21886;SDS011;11108;49.988;8.182;2024-01-25T06:11:24;3.80;;;1.93;;
21886;SDS011;11108;49.988;8.182;2024-01-25T06:13:49;2.83;;;1.60;;
21886;SDS011;11108;49.988;8.182;2024-01-25T06:16:14;2.30;;;1.50;;
21886;SDS011;11108;49.988;8.182;2024-01-25T06:18:39;4.40;;;1.80;;
21886;SDS011;11108;49.988;8.182;2024-01-25T06:21:05;2.67;;;1.53;;
21886;SDS011;11108;49.988;8.182;2024-01-25T06:23:30;1.90;;;1.33;;
21886;SDS011;11108;49.988;8.182;2024-01-25T06:25:55;1.80;;;1.50;;
21886;SDS011;11108;49.988;8.182;2024-01-25T06:28:20;4.43;;;1.53;;
21886;SDS011;11108;49.988;8.182;2024-01-25T06:30:46;2.70;;;1.80;;
21886;SDS011;11108;49.988;8.182;2024-01-25T06:33:11;3.90;;;1.80;;
21886;SDS011;11108;49.988;8.182;2024-01-25T06:35:37;1.90;;;1.43;;
21886;SDS011;11108;49.988;8.182;2024-01-25T06:38:02;2.70;;;1.40;;
21886;SDS011;11108;49.988;8.182;2024-01-25T06:40:27;4.80;;;1.73;;
21886;SDS011;11108;49.988;8.182;2024-01-25T06:42:52;3.27;;;1.80;;
21886;SDS011;11108;49.988;8.182;2024-01-25T06:45:17;4.03;;;2.00;;
21886;SDS011;11108;49.988;8.182;2024-01-25T06:47:43;3.37;;;1.73;;
21886;SDS011;11108;49.988;8.182;2024-01-25T06:50:08;2.23;;;2.00;;
21886;SDS011;11108;49.988;8.182;2024-01-25T06:52:33;2.03;;;1.63;;
21886;SDS011;11108;49.988;8.182;2024-01-25T06:54:59;3.10;;;1.90;;
21886;SDS011;11108;49.988;8.182;2024-01-25T06:57:24;2.73;;;1.90;;
21886;SDS011;11108;49.988;8.182;2024-01-25T06:59:49;4.10;;;2.00;;
21886;SDS011;11108;49.988;8.182;2024-01-25T07:02:14;3.53;;;1.70;;
21886;SDS011;11108;49.988;8.182;2024-01-25T07:04:39;3.33;;;1.93;;
21886;SDS011;11108;49.988;8.182;2024-01-25T07:07:05;3.47;;;1.90;;
21886;SDS011;11108;49.988;8.182;2024-01-25T07:09:31;2.13;;;1.50;;
21886;SDS011;11108;49.988;8.182;2024-01-25T07:11:56;4.40;;;1.93;;
21886;SDS011;11108;49.988;8.182;2024-01-25T07:14:21;3.13;;;1.97;;
21886;SDS011;11108;49.988;8.182;2024-01-25T07:16:46;3.87;;;1.87;;
21886;SDS011;11108;49.988;8.182;2024-01-25T07:19:12;3.53;;;1.80;;
21886;SDS011;11108;49.988;8.182;2024-01-25T07:21:38;4.07;;;2.00;;
21886;SDS011;11108;49.988;8.182;2024-01-25T07:24:05;4.23;;;1.93;;
21886;SDS011;11108;49.988;8.182;2024-01-25T07:26:30;4.00;;;2.57;;
21886;SDS011;11108;49.988;8.182;2024-01-25T07:28:56;3.00;;;2.17;;
21886;SDS011;11108;49.988;8.182;2024-01-25T07:31:23;2.60;;;1.80;;
21886;SDS011;11108;49.988;8.182;2024-01-25T07:33:48;3.50;;;2.10;;
21886;SDS011;11108;49.988;8.182;2024-01-25T07:36:13;4.57;;;2.33;;
21886;SDS011;11108;49.988;8.182;2024-01-25T07:38:38;4.17;;;2.40;;
21886;SDS011;11108;49.988;8.182;2024-01-25T07:41:04;3.57;;;2.20;;
21886;SDS011;11108;49.988;8.182;2024-01-25T07:43:29;3.20;;;2.17;;
21886;SDS011;11108;49.988;8.182;2024-01-25T07:45:54;3.87;;;2.30;;
21886;SDS011;11108;49.988;8.182;2024-01-25T07:48:19;3.30;;;2.20;;
21886;SDS011;11108;49.988;8.182;2024-01-25T07:50:45;4.13;;;2.50;;
21886;SDS011;11108;49.988;8.182;2024-01-25T07:53:10;4.20;;;2.30;;
21886;SDS011;11108;49.988;8.182;2024-01-25T07:55:37;4.40;;;2.07;;
21886;SDS011;11108;49.988;8.182;2024-01-25T07:58:02;4.63;;;2.30;;
21886;SDS011;11108;49.988;8.182;2024-01-25T08:00:27;6.53;;;2.30;;
21886;SDS011;11108;49.988;8.182;2024-01-25T08:02:52;4.23;;;2.47;;
21886;SDS011;11108;49.988;8.182;2024-01-25T08:05:18;4.47;;;2.40;;
21886;SDS011;11108;49.988;8.182;2024-01-25T08:07:44;2.90;;;2.20;;
21886;SDS011;11108;49.988;8.182;2024-01-25T08:10:09;5.27;;;2.40;;
21886;SDS011;11108;49.988;8.182;2024-01-25T08:12:34;6.30;;;2.33;;
21886;SDS011;11108;49.988;8.182;2024-01-25T08:15:00;4.13;;;2.17;;
21886;SDS011;11108;49.988;8.182;2024-01-25T08:17:25;3.03;;;2.10;;
21886;SDS011;11108;49.988;8.182;2024-01-25T08:19:50;3.97;;;2.47;;
21886;SDS011;11108;49.988;8.182;2024-01-25T08:22:15;5.83;;;2.53;;
21886;SDS011;11108;49.988;8.182;2024-01-25T08:24:40;5.13;;;3.10;;
21886;SDS011;11108;49.988;8.182;2024-01-25T08:27:06;4.00;;;2.77;;
21886;SDS011;11108;49.988;8.182;2024-01-25T08:29:32;8.00;;;2.57;;
21886;SDS011;11108;49.988;8.182;2024-01-25T08:31:57;4.53;;;2.50;;
21886;SDS011;11108;49.988;8.182;2024-01-25T08:34:22;5.97;;;2.40;;
21886;SDS011;11108;49.988;8.182;2024-01-25T08:36:48;5.73;;;2.90;;
21886;SDS011;11108;49.988;8.182;2024-01-25T08:39:13;4.73;;;2.27;;
21886;SDS011;11108;49.988;8.182;2024-01-25T08:41:39;3.67;;;2.20;;
21886;SDS011;11108;49.988;8.182;2024-01-25T08:44:04;3.60;;;2.30;;
21886;SDS011;11108;49.988;8.182;2024-01-25T08:46:30;5.63;;;2.53;;
21886;SDS011;11108;49.988;8.182;2024-01-25T08:48:55;3.50;;;2.17;;
21886;SDS011;11108;49.988;8.182;2024-01-25T08:51:20;3.40;;;2.10;;
21886;SDS011;11108;49.988;8.182;2024-01-25T08:53:45;5.47;;;2.83;;
21886;SDS011;11108;49.988;8.182;2024-01-25T08:56:11;4.70;;;2.90;;
21886;SDS011;11108;49.988;8.182;2024-01-25T08:58:36;4.77;;;2.57;;
21886;SDS011;11108;49.988;8.182;2024-01-25T09:01:01;4.07;;;2.70;;
21886;SDS011;11108;49.988;8.182;2024-01-25T09:03:26;4.33;;;1.83;;
21886;SDS011;11108;49.988;8.182;2024-01-25T09:05:51;4.03;;;2.50;;
21886;SDS011;11108;49.988;8.182;2024-01-25T09:08:17;5.10;;;2.70;;
21886;SDS011;11108;49.988;8.182;2024-01-25T09:10:42;4.80;;;2.70;;
21886;SDS011;11108;49.988;8.182;2024-01-25T09:13:08;5.67;;;2.77;;
21886;SDS011;11108;49.988;8.182;2024-01-25T09:15:33;5.67;;;2.80;;
21886;SDS011;11108;49.988;8.182;2024-01-25T09:17:59;4.07;;;2.20;;
21886;SDS011;11108;49.988;8.182;2024-01-25T09:20:24;5.00;;;2.30;;
21886;SDS011;11108;49.988;8.182;2024-01-25T09:22:50;4.37;;;2.10;;
21886;SDS011;11108;49.988;8.182;2024-01-25T09:25:15;4.40;;;2.20;;
21886;SDS011;11108;49.988;8.182;2024-01-25T09:27:40;4.60;;;2.73;;
21886;SDS011;11108;49.988;8.182;2024-01-25T09:30:06;6.77;;;2.63;;
21886;SDS011;11108;49.988;8.182;2024-01-25T09:32:31;2.23;;;2.03;;
21886;SDS011;11108;49.988;8.182;2024-01-25T09:34:56;4.57;;;2.00;;
21886;SDS011;11108;49.988;8.182;2024-01-25T09:37:21;5.07;;;2.30;;
21886;SDS011;11108;49.988;8.182;2024-01-25T09:39:49;5.20;;;2.23;;
21886;SDS011;11108;49.988;8.182;2024-01-25T09:42:14;3.53;;;2.43;;
21886;SDS011;11108;49.988;8.182;2024-01-25T09:44:40;3.00;;;2.27;;
21886;SDS011;11108;49.988;8.182;2024-01-25T09:47:06;4.20;;;2.40;;
21886;SDS011;11108;49.988;8.182;2024-01-25T09:49:32;3.10;;;2.30;;
21886;SDS011;11108;49.988;8.182;2024-01-25T09:51:57;3.87;;;2.50;;
21886;SDS011;11108;49.988;8.182;2024-01-25T09:54:24;2.80;;;1.93;;
21886;SDS011;11108;49.988;8.182;2024-01-25T09:56:50;4.13;;;2.10;;
21886;SDS011;11108;49.988;8.182;2024-01-25T09:59:16;4.50;;;2.40;;
21886;SDS011;11108;49.988;8.182;2024-01-25T10:01:41;3.87;;;2.60;;
21886;SDS011;11108;49.988;8.182;2024-01-25T10:04:07;2.73;;;2.00;;
21886;SDS011;11108;49.988;8.182;2024-01-25T10:06:33;4.07;;;1.87;;
21886;SDS011;11108;49.988;8.182;2024-01-25T10:08:58;3.90;;;2.30;;
21886;SDS011;11108;49.988;8.182;2024-01-25T10:11:23;4.90;;;2.60;;
21886;SDS011;11108;49.988;8.182;2024-01-25T10:13:49;5.83;;;1.97;;
21886;SDS011;11108;49.988;8.182;2024-01-25T10:16:19;3.77;;;2.50;;
21886;SDS011;11108;49.988;8.182;2024-01-25T10:18:46;6.97;;;2.40;;
21886;SDS011;11108;49.988;8.182;2024-01-25T10:21:11;6.00;;;2.63;;
21886;SDS011;11108;49.988;8.182;2024-01-25T10:23:37;5.77;;;2.93;;
21886;SDS011;11108;49.988;8.182;2024-01-25T10:26:03;3.60;;;2.60;;
21886;SDS011;11108;49.988;8.182;2024-01-25T10:28:28;3.50;;;2.13;;
21886;SDS011;11108;49.988;8.182;2024-01-25T10:30:59;3.33;;;2.30;;
21886;SDS011;11108;49.988;8.182;2024-01-25T10:33:25;3.97;;;2.20;;
21886;SDS011;11108;49.988;8.182;2024-01-25T10:35:51;2.80;;;2.00;;
21886;SDS011;11108;49.988;8.182;2024-01-25T10:38:20;2.97;;;2.23;;
21886;SDS011;11108;49.988;8.182;2024-01-25T10:40:46;3.03;;;2.33;;
21886;SDS011;11108;49.988;8.182;2024-01-25T10:43:11;5.13;;;2.00;;
21886;SDS011;11108;49.988;8.182;2024-01-25T10:45:36;3.60;;;2.10;;
21886;SDS011;11108;49.988;8.182;2024-01-25T10:48:02;5.07;;;2.40;;
21886;SDS011;11108;49.988;8.182;2024-01-25T10:50:27;4.03;;;2.30;;
21886;SDS011;11108;49.988;8.182;2024-01-25T10:52:52;4.37;;;2.40;;
21886;SDS011;11108;49.988;8.182;2024-01-25T10:55:18;4.73;;;2.40;;
21886;SDS011;11108;49.988;8.182;2024-01-25T10:57:45;6.10;;;2.80;;
21886;SDS011;11108;49.988;8.182;2024-01-25T11:00:11;5.33;;;2.57;;
21886;SDS011;11108;49.988;8.182;2024-01-25T11:02:37;5.33;;;2.73;;
21886;SDS011;11108;49.988;8.182;2024-01-25T11:05:11;4.23;;;2.67;;
21886;SDS011;11108;49.988;8.182;2024-01-25T11:07:40;4.70;;;2.20;;
21886;SDS011;11108;49.988;8.182;2024-01-25T11:10:06;5.10;;;2.70;;
21886;SDS011;11108;49.988;8.182;2024-01-25T11:12:35;6.57;;;2.53;;
21886;SDS011;11108;49.988;8.182;2024-01-25T11:15:05;7.17;;;2.73;;
21886;SDS011;11108;49.988;8.182;2024-01-25T11:17:31;3.10;;;1.90;;
21886;SDS011;11108;49.988;8.182;2024-01-25T11:19:59;6.57;;;2.23;;
21886;SDS011;11108;49.988;8.182;2024-01-25T11:22:33;6.90;;;2.30;;
21886;SDS011;11108;49.988;8.182;2024-01-25T11:24:59;4.87;;;2.37;;
21886;SDS011;11108;49.988;8.182;2024-01-25T11:27:24;6.33;;;2.23;;
21886;SDS011;11108;49.988;8.182;2024-01-25T11:29:51;5.13;;;2.67;;
21886;SDS011;11108;49.988;8.182;2024-01-25T11:32:17;5.67;;;2.53;;
21886;SDS011;11108;49.988;8.182;2024-01-25T11:34:43;7.00;;;2.37;;
21886;SDS011;11108;49.988;8.182;2024-01-25T11:37:08;6.73;;;2.70;;
21886;SDS011;11108;49.988;8.182;2024-01-25T11:39:33;5.00;;;2.20;;
21886;SDS011;11108;49.988;8.182;2024-01-25T11:41:59;4.60;;;2.57;;
21886;SDS011;11108;49.988;8.182;2024-01-25T11:44:24;4.63;;;2.27;;
21886;SDS011;11108;49.988;8.182;2024-01-25T11:46:49;4.97;;;2.37;;
21886;SDS011;11108;49.988;8.182;2024-01-25T11:49:14;3.23;;;2.10;;
21886;SDS011;11108;49.988;8.182;2024-01-25T11:51:40;6.50;;;2.13;;
21886;SDS011;11108;49.988;8.182;2024-01-25T11:54:05;4.37;;;2.30;;
21886;SDS011;11108;49.988;8.182;2024-01-25T11:56:33;6.93;;;2.43;;
21886;SDS011;11108;49.988;8.182;2024-01-25T11:58:58;5.73;;;2.70;;
21886;SDS011;11108;49.988;8.182;2024-01-25T12:01:24;5.83;;;2.90;;
21886;SDS011;11108;49.988;8.182;2024-01-25T12:03:49;4.60;;;2.60;;
21886;SDS011;11108;49.988;8.182;2024-01-25T12:06:15;2.67;;;2.20;;
21886;SDS011;11108;49.988;8.182;2024-01-25T12:08:40;5.17;;;2.70;;
21886;SDS011;11108;49.988;8.182;2024-01-25T12:11:07;4.00;;;1.93;;
21886;SDS011;11108;49.988;8.182;2024-01-25T12:13:36;4.20;;;1.97;;
21886;SDS011;11108;49.988;8.182;2024-01-25T12:16:03;5.47;;;2.80;;
21886;SDS011;11108;49.988;8.182;2024-01-25T12:18:29;3.90;;;2.83;;
21886;SDS011;11108;49.988;8.182;2024-01-25T12:20:54;4.27;;;2.60;;
21886;SDS011;11108;49.988;8.182;2024-01-25T12:23:20;3.90;;;2.53;;
21886;SDS011;11108;49.988;8.182;2024-01-25T12:25:45;4.17;;;2.40;;
21886;SDS011;11108;49.988;8.182;2024-01-25T12:28:10;6.27;;;2.17;;
21886;SDS011;11108;49.988;8.182;2024-01-25T12:30:36;6.03;;;2.43;;
21886;SDS011;11108;49.988;8.182;2024-01-25T12:33:01;3.67;;;2.13;;
21886;SDS011;11108;49.988;8.182;2024-01-25T12:35:26;2.87;;;2.57;;
21886;SDS011;11108;49.988;8.182;2024-01-25T12:37:51;3.37;;;1.93;;
21886;SDS011;11108;49.988;8.182;2024-01-25T12:40:16;4.67;;;2.40;;
21886;SDS011;11108;49.988;8.182;2024-01-25T12:42:42;4.77;;;2.33;;
21886;SDS011;11108;49.988;8.182;2024-01-25T12:45:07;3.03;;;2.20;;
21886;SDS011;11108;49.988;8.182;2024-01-25T12:47:32;2.93;;;2.07;;
21886;SDS011;11108;49.988;8.182;2024-01-25T12:49:57;3.50;;;2.10;;
21886;SDS011;11108;49.988;8.182;2024-01-25T12:52:23;4.67;;;2.30;;
21886;SDS011;11108;49.988;8.182;2024-01-25T12:54:48;5.97;;;2.50;;
21886;SDS011;11108;49.988;8.182;2024-01-25T12:57:13;5.03;;;2.40;;
21886;SDS011;11108;49.988;8.182;2024-01-25T12:59:38;5.73;;;2.30;;
21886;SDS011;11108;49.988;8.182;2024-01-25T13:02:04;4.37;;;2.40;;
21886;SDS011;11108;49.988;8.182;2024-01-25T13:04:30;4.33;;;2.20;;
21886;SDS011;11108;49.988;8.182;2024-01-25T13:06:55;4.97;;;2.43;;
21886;SDS011;11108;49.988;8.182;2024-01-25T13:09:21;3.03;;;2.30;;
21886;SDS011;11108;49.988;8.182;2024-01-25T13:11:46;3.93;;;2.20;;
21886;SDS011;11108;49.988;8.182;2024-01-25T13:14:11;6.40;;;2.40;;
21886;SDS011;11108;49.988;8.182;2024-01-25T13:16:37;3.40;;;2.00;;
21886;SDS011;11108;49.988;8.182;2024-01-25T13:19:02;3.00;;;1.67;;
21886;SDS011;11108;49.988;8.182;2024-01-25T13:21:27;3.70;;;2.20;;
21886;SDS011;11108;49.988;8.182;2024-01-25T13:23:52;3.50;;;2.10;;
21886;SDS011;11108;49.988;8.182;2024-01-25T13:26:17;5.43;;;1.97;;
21886;SDS011;11108;49.988;8.182;2024-01-25T13:28:43;4.20;;;2.10;;
21886;SDS011;11108;49.988;8.182;2024-01-25T13:31:08;3.90;;;2.20;;
21886;SDS011;11108;49.988;8.182;2024-01-25T13:33:33;2.43;;;1.97;;
21886;SDS011;11108;49.988;8.182;2024-01-25T13:35:58;3.43;;;2.03;;
21886;SDS011;11108;49.988;8.182;2024-01-25T13:38:23;3.90;;;2.20;;
21886;SDS011;11108;49.988;8.182;2024-01-25T13:40:50;4.23;;;2.40;;
21886;SDS011;11108;49.988;8.182;2024-01-25T13:43:15;3.70;;;2.33;;
21886;SDS011;11108;49.988;8.182;2024-01-25T13:45:41;3.20;;;1.80;;
21886;SDS011;11108;49.988;8.182;2024-01-25T13:48:06;3.30;;;1.87;;
21886;SDS011;11108;49.988;8.182;2024-01-25T13:50:31;4.53;;;2.10;;
21886;SDS011;11108;49.988;8.182;2024-01-25T13:52:56;4.30;;;2.00;;
21886;SDS011;11108;49.988;8.182;2024-01-25T13:55:22;3.03;;;1.97;;
21886;SDS011;11108;49.988;8.182;2024-01-25T13:57:47;3.10;;;1.83;;
21886;SDS011;11108;49.988;8.182;2024-01-25T14:00:12;4.20;;;2.10;;
21886;SDS011;11108;49.988;8.182;2024-01-25T14:02:39;3.97;;;2.27;;
21886;SDS011;11108;49.988;8.182;2024-01-25T14:05:04;3.30;;;2.10;;
21886;SDS011;11108;49.988;8.182;2024-01-25T14:07:30;2.37;;;2.07;;
21886;SDS011;11108;49.988;8.182;2024-01-25T14:09:55;3.20;;;2.03;;
21886;SDS011;11108;49.988;8.182;2024-01-25T14:12:20;3.17;;;2.20;;
21886;SDS011;11108;49.988;8.182;2024-01-25T14:14:45;4.43;;;2.10;;
21886;SDS011;11108;49.988;8.182;2024-01-25T14:17:10;4.57;;;2.27;;
21886;SDS011;11108;49.988;8.182;2024-01-25T14:19:36;4.63;;;2.40;;
21886;SDS011;11108;49.988;8.182;2024-01-25T14:22:01;2.97;;;2.00;;
21886;SDS011;11108;49.988;8.182;2024-01-25T14:24:26;2.73;;;1.67;;
21886;SDS011;11108;49.988;8.182;2024-01-25T14:26:51;5.23;;;2.23;;
21886;SDS011;11108;49.988;8.182;2024-01-25T14:29:16;4.07;;;1.90;;
21886;SDS011;11108;49.988;8.182;2024-01-25T14:31:42;3.17;;;2.20;;
21886;SDS011;11108;49.988;8.182;2024-01-25T14:34:07;3.70;;;2.10;;
21886;SDS011;11108;49.988;8.182;2024-01-25T14:36:34;2.77;;;1.87;;